createdAt,value
2022-11-21T00:01:28.498Z,28.77
2022-11-21T00:03:55.543Z,36.50
2022-11-21T00:06:23.824Z,51.10
2022-11-21T00:08:51.297Z,36.23
2022-11-21T00:11:18.412Z,35.37
2022-11-21T00:13:45.631Z,42.67
2022-11-21T00:16:15.660Z,34.10
2022-11-21T00:18:44.199Z,35.30
2022-11-21T00:21:17.779Z,30.67
2022-11-21T00:23:46.483Z,38.67
2022-11-21T00:26:15.982Z,38.37
2022-11-21T00:28:43.286Z,45.27
2022-11-21T00:31:20.523Z,47.87
2022-11-21T00:33:47.846Z,41.30
2022-11-21T00:36:15.189Z,42.33
2022-11-21T00:38:42.237Z,50.93
2022-11-21T00:41:09.379Z,41.13
2022-11-21T00:43:36.497Z,40.00
2022-11-21T00:46:04.416Z,46.87
2022-11-21T00:48:32.486Z,48.73
2022-11-21T00:51:02.769Z,47.13
2022-11-21T00:53:30.246Z,51.07
2022-11-21T00:55:58.010Z,49.40
2022-11-21T00:58:25.781Z,52.77
2022-11-21T01:00:53.302Z,57.87
2022-11-21T01:03:20.524Z,56.13
2022-11-21T01:05:47.608Z,51.80
2022-11-21T01:08:14.699Z,54.67
2022-11-21T01:10:41.763Z,52.60
2022-11-21T01:13:08.918Z,51.97
2022-11-21T01:15:35.953Z,52.33
2022-11-21T01:18:03.394Z,49.10
2022-11-21T01:20:30.462Z,46.40
2022-11-21T01:22:57.550Z,46.33
2022-11-21T01:25:24.745Z,47.07
2022-11-21T01:27:51.818Z,52.07
2022-11-21T01:30:18.998Z,51.33
2022-11-21T01:32:49.697Z,49.03
2022-11-21T01:35:17.898Z,47.53
2022-11-21T01:37:49.378Z,55.53
2022-11-21T01:40:17.117Z,46.90
2022-11-21T01:43:00.320Z,48.10
2022-11-21T01:46:07.969Z,44.60
2022-11-21T01:48:43.336Z,47.23
2022-11-21T01:51:38.790Z,49.67
2022-11-21T01:54:20.546Z,44.13
2022-11-21T01:56:58.968Z,43.00
2022-11-21T01:59:36.284Z,52.40
2022-11-21T02:02:08.931Z,51.33
2022-11-21T02:04:37.200Z,45.53
2022-11-21T02:07:07.287Z,45.93
2022-11-21T02:09:38.034Z,39.77
2022-11-21T02:12:13.696Z,45.37
2022-11-21T02:14:43.011Z,44.70
2022-11-21T02:17:10.917Z,48.20
2022-11-21T02:19:50.489Z,49.70
2022-11-21T02:22:49.321Z,41.60
2022-11-21T02:25:24.170Z,44.20
2022-11-21T02:27:56.450Z,43.30
2022-11-21T02:30:24.000Z,37.30
2022-11-21T02:32:51.127Z,37.43
2022-11-21T02:35:19.555Z,40.03
2022-11-21T02:37:55.244Z,36.07
2022-11-21T02:40:49.848Z,40.03
2022-11-21T02:43:24.613Z,38.50
2022-11-21T02:45:51.855Z,35.50
2022-11-21T02:48:19.096Z,37.03
2022-11-21T02:50:47.535Z,38.80
2022-11-21T02:53:17.971Z,31.87
2022-11-21T02:55:45.664Z,36.73
2022-11-21T02:58:13.165Z,39.83
2022-11-21T03:00:42.968Z,35.43
2022-11-21T03:03:10.265Z,36.13
2022-11-21T03:05:39.181Z,35.43
2022-11-21T03:08:06.798Z,33.67
2022-11-21T03:10:34.426Z,42.63
2022-11-21T03:13:01.740Z,35.13
2022-11-21T03:15:33.088Z,35.80
2022-11-21T03:18:04.357Z,37.63
2022-11-21T03:20:34.457Z,33.33
2022-11-21T03:23:02.119Z,33.33
2022-11-21T03:25:30.004Z,33.27
2022-11-21T03:27:57.182Z,38.10
2022-11-21T03:30:27.272Z,32.60
2022-11-21T03:32:58.223Z,33.50
2022-11-21T03:35:25.725Z,36.00
2022-11-21T03:37:52.814Z,33.60
2022-11-21T03:40:20.066Z,34.50
2022-11-21T03:42:47.329Z,33.60
2022-11-21T03:45:14.566Z,35.97
2022-11-21T03:47:42.128Z,35.73
2022-11-21T03:50:10.793Z,33.30
2022-11-21T03:52:37.852Z,40.07
2022-11-21T03:55:05.526Z,32.17
2022-11-21T03:57:32.596Z,33.23
2022-11-21T03:59:59.918Z,33.37
2022-11-21T04:02:26.971Z,34.47
2022-11-21T04:04:54.044Z,30.53
2022-11-21T04:07:21.164Z,40.87
2022-11-21T04:09:48.221Z,31.37
2022-11-21T04:12:15.273Z,27.53
2022-11-21T04:14:42.250Z,35.40
2022-11-21T04:17:09.451Z,35.37
2022-11-21T04:19:36.463Z,35.30
2022-11-21T04:22:03.815Z,32.50
2022-11-21T04:24:31.204Z,37.43
2022-11-21T04:26:58.393Z,34.03
2022-11-21T04:29:25.624Z,33.70
2022-11-21T04:31:52.741Z,34.33
2022-11-21T04:34:19.840Z,30.40
2022-11-21T04:36:46.979Z,33.13
2022-11-21T04:39:14.227Z,31.67
2022-11-21T04:41:41.315Z,29.93
2022-11-21T04:44:08.468Z,29.93
2022-11-21T04:46:35.633Z,30.77
2022-11-21T04:49:03.024Z,30.80
2022-11-21T04:51:30.187Z,28.30
2022-11-21T04:53:57.446Z,27.43
2022-11-21T04:56:24.546Z,29.47
2022-11-21T04:58:53.598Z,30.13
2022-11-21T05:01:20.848Z,31.57
2022-11-21T05:03:48.100Z,34.10
2022-11-21T05:06:15.229Z,30.20
2022-11-21T05:08:42.441Z,27.30
2022-11-21T05:11:28.412Z,31.10
2022-11-21T05:13:55.973Z,31.77
2022-11-21T05:16:23.453Z,27.20
2022-11-21T05:18:50.605Z,28.03
2022-11-21T05:21:17.683Z,33.37
2022-11-21T05:23:44.828Z,32.50
2022-11-21T05:26:11.906Z,28.47
2022-11-21T05:28:38.984Z,41.97
2022-11-21T05:31:06.128Z,37.47
2022-11-21T05:33:33.512Z,33.27
2022-11-21T05:36:00.635Z,36.60
2022-11-21T05:38:27.736Z,33.50
2022-11-21T05:40:54.819Z,34.20
2022-11-21T05:43:40.257Z,32.10
2022-11-21T05:46:07.348Z,33.93
2022-11-21T05:48:36.643Z,32.93
2022-11-21T05:51:05.027Z,35.63
2022-11-21T05:53:32.541Z,32.77
2022-11-21T05:56:07.437Z,29.37
2022-11-21T05:58:35.569Z,31.90
2022-11-21T06:01:03.978Z,37.17
2022-11-21T06:03:35.423Z,35.10
2022-11-21T06:06:07.880Z,33.77
2022-11-21T06:08:46.530Z,32.27
2022-11-21T06:11:16.539Z,37.13
2022-11-21T06:13:44.688Z,33.23
2022-11-21T06:16:15.437Z,27.87
2022-11-21T06:18:46.127Z,30.07
2022-11-21T06:21:19.409Z,29.83
2022-11-21T06:23:48.071Z,29.87
2022-11-21T06:26:17.238Z,31.57
2022-11-21T06:28:45.766Z,33.47
2022-11-21T06:31:21.408Z,33.33
2022-11-21T06:33:52.553Z,28.57
2022-11-21T06:36:20.001Z,29.97
2022-11-21T06:38:47.474Z,30.43
2022-11-21T06:41:23.675Z,33.00
2022-11-21T06:43:50.842Z,31.93
2022-11-21T06:46:19.101Z,30.33
2022-11-21T06:48:46.505Z,30.87
2022-11-21T06:51:24.968Z,23.60
2022-11-21T06:53:58.043Z,19.27
2022-11-21T06:56:27.316Z,14.73
2022-11-21T06:58:55.877Z,15.57
2022-11-21T07:01:24.041Z,10.50
2022-11-21T07:03:51.896Z,6.57
2022-11-21T07:06:18.973Z,4.80
2022-11-21T07:08:46.245Z,6.40
2022-11-21T07:11:30.097Z,6.37
2022-11-21T07:13:57.168Z,6.50
2022-11-21T07:16:26.340Z,5.03
2022-11-21T07:18:53.786Z,6.50
2022-11-21T07:21:20.906Z,5.30
2022-11-21T07:23:48.781Z,5.30
2022-11-21T07:26:15.987Z,6.50
2022-11-21T07:28:43.355Z,6.57
2022-11-21T07:31:13.939Z,6.37
2022-11-21T07:33:46.762Z,9.70
2022-11-21T07:36:14.716Z,7.47
2022-11-21T07:38:42.332Z,12.47
2022-11-21T07:41:10.374Z,13.00
2022-11-21T07:43:37.546Z,14.53
2022-11-21T07:46:04.870Z,15.67
2022-11-21T07:48:31.978Z,13.40
2022-11-21T07:50:59.307Z,18.70
2022-11-21T07:53:26.432Z,15.10
2022-11-21T07:55:53.550Z,17.57
2022-11-21T07:58:20.715Z,17.60
2022-11-21T08:00:47.876Z,17.37
2022-11-21T08:03:15.183Z,18.40
2022-11-21T08:05:44.373Z,25.10
2022-11-21T08:08:13.330Z,21.23
2022-11-21T08:10:45.406Z,18.37
2022-11-21T08:13:13.751Z,21.87
2022-11-21T08:15:41.353Z,23.50
2022-11-21T08:18:14.699Z,23.17
2022-11-21T08:20:42.938Z,21.90
2022-11-21T08:23:10.896Z,22.93
2022-11-21T08:25:40.324Z,30.60
2022-11-21T08:28:09.132Z,27.10
2022-11-21T08:30:37.786Z,19.40
2022-11-21T08:33:05.978Z,17.37
2022-11-21T08:35:33.223Z,18.20
2022-11-21T08:38:01.981Z,18.97
2022-11-21T08:40:31.901Z,19.40
2022-11-21T08:43:00.606Z,18.40
2022-11-21T08:45:27.833Z,21.40
2022-11-21T08:47:55.399Z,26.37
2022-11-21T08:50:23.780Z,24.43
2022-11-21T08:52:51.279Z,19.63
2022-11-21T08:55:18.576Z,19.90
2022-11-21T08:57:45.686Z,20.40
2022-11-21T09:00:15.733Z,22.60
2022-11-21T09:02:42.990Z,25.60
2022-11-21T09:05:10.617Z,19.23
2022-11-21T09:07:37.846Z,23.23
2022-11-21T09:10:05.734Z,26.10
2022-11-21T09:12:32.935Z,21.23
2022-11-21T09:15:18.429Z,21.90
2022-11-21T09:18:03.519Z,21.10
2022-11-21T09:20:40.298Z,20.60
2022-11-21T09:23:13.756Z,23.53
2022-11-21T09:25:41.242Z,26.40
2022-11-21T09:28:11.148Z,27.27
2022-11-21T09:30:39.825Z,25.17
2022-11-21T09:33:15.200Z,23.53
2022-11-21T09:35:42.436Z,29.40
2022-11-21T09:38:10.044Z,23.63
2022-11-21T09:40:42.299Z,27.40
2022-11-21T09:43:45.775Z,27.63
2022-11-21T09:46:17.892Z,26.73
2022-11-21T09:48:59.198Z,26.17
2022-11-21T09:51:31.318Z,20.50
2022-11-21T09:54:19.670Z,23.03
2022-11-21T09:56:48.589Z,24.10
2022-11-21T09:59:37.233Z,24.97
2022-11-21T10:02:16.215Z,22.80
2022-11-21T10:04:45.522Z,26.73
2022-11-21T10:07:18.415Z,26.90
2022-11-21T10:10:32.973Z,25.80
2022-11-21T10:13:34.543Z,24.60
2022-11-21T10:16:24.354Z,23.57
2022-11-21T10:19:18.480Z,19.80
2022-11-21T10:22:18.193Z,21.67
2022-11-21T10:25:03.904Z,22.00
2022-11-21T10:27:50.554Z,19.87
2022-11-21T10:30:20.934Z,22.43
2022-11-21T10:32:57.568Z,20.47
2022-11-21T10:35:35.846Z,25.50
2022-11-21T10:38:25.590Z,25.27
2022-11-21T10:41:05.199Z,27.20
2022-11-21T10:44:02.653Z,26.10
2022-11-21T10:46:29.834Z,24.40
2022-11-21T10:49:03.794Z,24.47
2022-11-21T10:51:50.648Z,20.43
2022-11-21T10:54:33.169Z,28.10
2022-11-21T10:57:23.152Z,28.07
2022-11-21T11:00:13.012Z,30.23
2022-11-21T11:03:00.365Z,26.23
2022-11-21T11:05:29.896Z,24.17
2022-11-21T11:08:14.851Z,24.80
2022-11-21T11:11:04.536Z,29.00
2022-11-21T11:13:45.926Z,34.37
2022-11-21T11:16:19.531Z,31.77
2022-11-21T11:18:55.298Z,30.17
2022-11-21T11:21:29.455Z,31.17
2022-11-21T11:24:27.538Z,38.63
2022-11-21T11:27:00.243Z,33.07
2022-11-21T11:29:34.935Z,39.17
2022-11-21T11:32:21.659Z,36.37
2022-11-21T11:35:00.192Z,30.83
2022-11-21T11:37:47.215Z,30.20
2022-11-21T11:40:21.292Z,33.37
2022-11-21T11:43:38.450Z,31.87
2022-11-21T11:46:32.700Z,34.23
2022-11-21T11:49:21.111Z,33.07
2022-11-21T11:51:55.055Z,29.87
2022-11-21T11:54:47.078Z,37.10
2022-11-21T11:57:14.753Z,31.30
2022-11-21T11:59:50.102Z,34.80
2022-11-21T12:02:29.535Z,32.13
2022-11-21T12:05:15.258Z,31.57
2022-11-21T12:11:35.924Z,32.63
2022-11-21T12:14:37.669Z,35.03
2022-11-21T12:17:09.321Z,36.13
2022-11-21T12:19:38.665Z,32.70
2022-11-21T12:22:06.743Z,35.70
2022-11-21T12:24:39.830Z,38.77
2022-11-21T12:27:28.890Z,34.47
2022-11-21T12:30:09.511Z,32.93
2022-11-21T12:33:08.220Z,37.73
2022-11-21T12:36:17.837Z,33.40
2022-11-21T12:39:06.127Z,37.40
2022-11-21T12:42:11.998Z,36.57
2022-11-21T12:44:42.322Z,36.50
2022-11-21T12:47:18.337Z,83.37
2022-11-21T12:50:32.472Z,36.87
2022-11-21T12:53:32.137Z,41.43
2022-11-21T12:56:15.167Z,35.53
2022-11-21T12:58:48.728Z,35.67
2022-11-21T13:02:07.156Z,42.07
2022-11-21T13:04:38.803Z,36.80
2022-11-21T13:07:07.845Z,41.87
2022-11-21T13:09:42.631Z,43.27
2022-11-21T13:12:23.183Z,34.03
2022-11-21T13:15:02.824Z,31.60
2022-11-21T13:17:52.090Z,33.43
2022-11-21T13:20:39.330Z,28.47
2022-11-21T13:23:32.256Z,31.33
2022-11-21T13:25:59.488Z,36.30
2022-11-21T13:28:34.860Z,34.60
2022-11-21T13:31:06.580Z,33.77
2022-11-21T13:33:39.336Z,33.03
2022-11-21T13:36:27.892Z,28.83
2022-11-21T13:38:55.095Z,33.10
2022-11-21T13:41:53.567Z,34.17
2022-11-21T13:44:32.973Z,37.20
2022-11-21T13:47:20.316Z,33.63
2022-11-21T13:50:15.433Z,31.07
2022-11-21T13:53:18.534Z,30.87
2022-11-21T13:56:26.697Z,32.50
2022-11-21T13:59:38.554Z,33.53
2022-11-21T14:02:33.235Z,31.77
2022-11-21T14:05:12.193Z,32.47
2022-11-21T14:07:41.662Z,36.77
2022-11-21T14:10:33.619Z,33.50
2022-11-21T14:13:03.231Z,36.10
2022-11-21T14:15:52.815Z,35.50
2022-11-21T14:18:25.344Z,38.10
2022-11-21T14:21:01.096Z,35.70
2022-11-21T14:23:34.675Z,41.67
2022-11-21T14:26:13.036Z,36.23
2022-11-21T14:28:40.152Z,35.73
2022-11-21T14:31:10.006Z,34.03
2022-11-21T14:33:42.976Z,38.90
2022-11-21T14:36:26.056Z,41.97
2022-11-21T14:39:35.402Z,38.93
2022-11-21T14:41:57.159Z,40.13
2022-11-21T14:44:25.155Z,39.37
2022-11-21T14:47:13.388Z,45.17
2022-11-21T14:50:01.076Z,44.73
2022-11-21T14:52:34.171Z,46.67
2022-11-21T14:55:29.294Z,49.87
2022-11-21T14:57:55.856Z,45.30
2022-11-21T15:00:58.046Z,43.97
2022-11-21T15:06:11.330Z,39.83
2022-11-21T15:11:47.331Z,43.63
2022-11-21T15:14:39.653Z,41.90
2022-11-21T15:17:13.474Z,47.93
2022-11-21T15:19:42.695Z,39.20
2022-11-21T15:22:36.651Z,47.83
2022-11-21T15:25:19.085Z,43.77
2022-11-21T15:27:51.512Z,47.63
2022-11-21T15:30:18.649Z,48.93
2022-11-21T15:33:07.452Z,47.83
2022-11-21T15:35:57.762Z,46.57
2022-11-21T15:38:30.755Z,40.83
2022-11-21T15:41:09.810Z,45.70
2022-11-21T15:43:42.854Z,44.53
2022-11-21T15:46:24.011Z,42.70
2022-11-21T15:49:25.151Z,44.33
2022-11-21T15:54:38.222Z,50.30
2022-11-21T15:57:06.271Z,45.67
2022-11-21T15:57:14.418Z,41.57
2022-11-21T15:57:15.993Z,44.37
2022-11-21T15:59:33.509Z,46.83
2022-11-21T16:02:00.660Z,47.80
2022-11-21T16:04:27.914Z,49.70
2022-11-21T16:06:55.642Z,41.70
2022-11-21T16:09:23.134Z,44.83
2022-11-21T16:11:50.382Z,45.47
2022-11-21T16:14:20.949Z,37.30
2022-11-21T16:16:48.080Z,40.47
2022-11-21T16:19:16.168Z,40.27
2022-11-21T16:21:43.489Z,42.83
2022-11-21T16:24:10.705Z,43.90
2022-11-21T16:26:40.212Z,42.70
2022-11-21T16:29:07.295Z,50.53
2022-11-21T16:31:34.849Z,45.80
2022-11-21T16:34:02.591Z,47.53
2022-11-21T16:36:31.528Z,39.10
2022-11-21T16:39:09.037Z,46.33
2022-11-21T16:41:39.530Z,43.13
2022-11-21T16:44:16.404Z,44.50
2022-11-21T16:46:48.164Z,44.80
2022-11-21T16:49:15.347Z,51.50
2022-11-21T16:51:42.694Z,43.70
2022-11-21T16:54:09.926Z,44.53
2022-11-21T16:56:37.340Z,54.30
2022-11-21T16:59:04.581Z,44.50
2022-11-21T17:01:32.019Z,43.53
2022-11-21T17:03:59.470Z,39.23
2022-11-21T17:06:30.378Z,46.73
2022-11-21T17:09:01.235Z,43.67
2022-11-21T17:11:31.233Z,40.00
2022-11-21T17:14:06.478Z,38.07
2022-11-21T17:16:35.568Z,37.67
2022-11-21T17:19:03.865Z,42.13
2022-11-21T17:21:32.457Z,40.27
2022-11-21T17:23:59.616Z,42.73
2022-11-21T17:26:28.775Z,47.50
2022-11-21T17:29:01.243Z,43.80
2022-11-21T17:31:28.662Z,40.17
2022-11-21T17:34:00.978Z,45.40
2022-11-21T17:36:30.493Z,40.60
2022-11-21T17:38:57.837Z,44.20
2022-11-21T17:41:26.214Z,37.93
2022-11-21T17:43:57.996Z,44.67
2022-11-21T17:46:26.699Z,39.73
2022-11-21T17:48:58.103Z,43.57
2022-11-21T17:51:32.305Z,49.90
2022-11-21T17:54:00.788Z,46.53
2022-11-21T17:56:31.095Z,42.13
2022-11-21T17:58:58.263Z,41.10
2022-11-21T18:01:25.480Z,35.73
2022-11-21T18:04:15.042Z,42.37
2022-11-21T18:06:42.488Z,44.60
2022-11-21T18:09:13.569Z,45.17
2022-11-21T18:11:41.043Z,39.60
2022-11-21T18:14:10.665Z,46.57
2022-11-21T18:16:39.607Z,51.23
2022-11-21T18:19:09.445Z,48.13
2022-11-21T18:21:36.575Z,42.17
2022-11-21T18:24:03.945Z,41.60
2022-11-21T18:26:34.672Z,48.60
2022-11-21T18:31:57.378Z,48.67
2022-11-21T18:34:43.103Z,46.47
2022-11-21T18:37:10.644Z,52.70
2022-11-21T18:39:37.677Z,43.23
2022-11-21T18:42:04.816Z,51.40
2022-11-21T18:44:31.868Z,47.03
2022-11-21T18:46:59.130Z,52.33
2022-11-21T18:49:26.495Z,59.40
2022-11-21T18:51:53.954Z,63.90
2022-11-21T18:54:20.959Z,43.20
2022-11-21T18:56:48.086Z,53.03
2022-11-21T18:59:15.313Z,59.03
2022-11-21T19:01:42.487Z,44.07
2022-11-21T19:04:12.161Z,50.30
2022-11-21T19:06:39.402Z,48.47
2022-11-21T19:09:08.206Z,55.30
2022-11-21T19:11:35.346Z,43.67
2022-11-21T19:14:02.521Z,44.70
2022-11-21T19:16:31.558Z,44.40
2022-11-21T19:19:33.129Z,47.13
2022-11-21T19:21:47.294Z,43.00
2022-11-21T19:24:16.277Z,50.97
2022-11-21T19:26:43.697Z,46.50
2022-11-21T19:29:11.263Z,38.67
2022-11-21T19:31:44.725Z,43.20
2022-11-21T19:34:14.821Z,43.87
2022-11-21T19:36:42.616Z,41.47
2022-11-21T19:39:10.139Z,59.17
2022-11-21T19:41:37.569Z,37.97
2022-11-21T19:44:04.997Z,47.60
2022-11-21T19:46:35.995Z,52.40
2022-11-21T19:49:04.533Z,37.30
2022-11-21T19:51:41.362Z,32.93
2022-11-21T19:54:12.098Z,38.93
2022-11-21T19:56:39.891Z,36.90
2022-11-21T19:59:06.964Z,32.03
2022-11-21T20:01:35.532Z,46.30
2022-11-21T20:04:05.321Z,39.10
2022-11-21T20:06:41.433Z,34.73
2022-11-21T20:09:16.157Z,29.90
2022-11-21T20:11:46.486Z,40.97
2022-11-21T20:14:20.950Z,34.67
2022-11-21T20:16:50.308Z,27.13
2022-11-21T20:19:19.867Z,33.43
2022-11-21T20:21:47.928Z,32.80
2022-11-21T20:24:15.975Z,31.23
2022-11-21T20:26:43.843Z,34.13
2022-11-21T20:29:13.610Z,31.63
2022-11-21T20:31:40.853Z,33.33
2022-11-21T20:34:13.862Z,29.70
2022-11-21T20:36:42.299Z,32.43
2022-11-21T20:39:18.911Z,34.07
2022-11-21T20:41:48.061Z,37.30
2022-11-21T20:45:30.169Z,32.93
2022-11-21T20:47:07.865Z,34.90
2022-11-21T20:49:35.773Z,33.77
2022-11-21T20:54:50.097Z,31.83
2022-11-21T20:57:17.279Z,33.30
2022-11-21T20:59:44.334Z,33.80
2022-11-21T21:02:14.969Z,36.10
2022-11-21T21:04:42.631Z,33.07
2022-11-21T21:07:10.132Z,33.03
2022-11-21T21:09:37.301Z,32.73
2022-11-21T21:12:05.690Z,36.50
2022-11-21T21:14:32.970Z,36.47
2022-11-21T21:17:00.087Z,42.57
2022-11-21T21:19:27.522Z,33.80
2022-11-21T21:21:54.887Z,36.27
2022-11-21T21:24:22.002Z,32.70
2022-11-21T21:26:49.759Z,34.60
2022-11-21T21:29:20.278Z,35.03
2022-11-21T21:31:51.738Z,35.80
2022-11-21T21:34:21.403Z,34.80
2022-11-21T21:36:49.182Z,32.43
2022-11-21T21:39:16.443Z,30.30
2022-11-21T21:41:47.379Z,27.90
2022-11-21T21:44:15.823Z,29.27
2022-11-21T21:46:43.166Z,30.53
2022-11-21T21:49:10.424Z,32.13
2022-11-21T21:51:37.763Z,30.90
2022-11-21T21:54:06.468Z,26.80
2022-11-21T21:56:34.185Z,26.20
2022-11-21T21:59:01.448Z,30.40
2022-11-21T22:01:31.628Z,24.33
2022-11-21T22:04:03.813Z,29.53
2022-11-21T22:06:33.982Z,24.80
2022-11-21T22:09:02.242Z,29.83
2022-11-21T22:11:32.325Z,25.13
2022-11-21T22:14:03.202Z,28.10
2022-11-21T22:16:31.172Z,26.93
2022-11-21T22:18:58.468Z,24.00
2022-11-21T22:21:33.815Z,23.97
2022-11-21T22:26:51.381Z,25.50
2022-11-21T22:29:18.466Z,28.60
2022-11-21T22:31:45.557Z,23.70
2022-11-21T22:34:14.128Z,22.93
2022-11-21T22:36:41.640Z,22.50
2022-11-21T22:39:09.202Z,26.00
2022-11-21T22:41:36.537Z,26.70
2022-11-21T22:44:03.936Z,22.37
2022-11-21T22:46:31.201Z,27.37
2022-11-21T22:48:58.553Z,24.03
2022-11-21T22:51:29.530Z,19.00
2022-11-21T22:53:57.524Z,21.10
2022-11-21T22:56:26.075Z,23.37
2022-11-21T22:58:53.420Z,26.73
2022-11-21T23:01:24.276Z,18.27
2022-11-21T23:03:51.866Z,26.80
2022-11-21T23:06:23.591Z,18.90
2022-11-21T23:08:55.982Z,28.07
2022-11-21T23:11:27.703Z,21.23
2022-11-21T23:13:56.853Z,21.67
2022-11-21T23:16:25.230Z,21.83
2022-11-21T23:18:54.342Z,22.13
2022-11-21T23:21:21.652Z,19.70
2022-11-21T23:23:49.028Z,21.50
2022-11-21T23:26:16.158Z,18.40
2022-11-21T23:28:43.297Z,20.53
2022-11-21T23:31:10.889Z,21.90
2022-11-21T23:33:38.039Z,18.27
2022-11-21T23:36:05.782Z,21.67
2022-11-21T23:38:32.844Z,15.40
2022-11-21T23:40:59.893Z,20.10
2022-11-21T23:43:27.341Z,20.50
2022-11-21T23:45:55.086Z,18.30
2022-11-21T23:48:24.209Z,18.30
2022-11-21T23:50:52.112Z,17.53
2022-11-21T23:53:20.238Z,16.90
2022-11-21T23:55:48.417Z,15.97
2022-11-21T23:58:16.191Z,17.23
